sensor_id;sensor_type;location;lat;lon;timestamp;P1;durP1;ratioP1;P2;durP2;ratioP2
50585;SDS011;36542;51.700;8.846;2024-01-10T00:00:12;10.10;;;4.47;;
50585;SDS011;36542;51.700;8.846;2024-01-10T00:02:38;6.80;;;4.13;;
50585;SDS011;36542;51.700;8.846;2024-01-10T00:05:03;8.97;;;5.27;;
50585;SDS011;36542;51.700;8.846;2024-01-10T00:07:29;8.77;;;3.73;;
50585;SDS011;36542;51.700;8.846;2024-01-10T00:09:55;7.63;;;4.27;;
50585;SDS011;36542;51.700;8.846;2024-01-10T00:12:22;10.10;;;5.27;;
50585;SDS011;36542;51.700;8.846;2024-01-10T00:14:47;11.20;;;5.07;;
50585;SDS011;36542;51.700;8.846;2024-01-10T00:17:13;7.10;;;4.10;;
50585;SDS011;36542;51.700;8.846;2024-01-10T00:19:39;6.47;;;4.53;;
50585;SDS011;36542;51.700;8.846;2024-01-10T00:22:04;8.97;;;4.60;;
50585;SDS011;36542;51.700;8.846;2024-01-10T00:24:30;10.27;;;4.77;;
50585;SDS011;36542;51.700;8.846;2024-01-10T00:26:55;9.13;;;4.50;;
50585;SDS011;36542;51.700;8.846;2024-01-10T00:29:21;8.17;;;4.47;;
50585;SDS011;36542;51.700;8.846;2024-01-10T00:31:46;6.30;;;3.87;;
50585;SDS011;36542;51.700;8.846;2024-01-10T00:34:12;7.77;;;3.53;;
50585;SDS011;36542;51.700;8.846;2024-01-10T00:36:37;9.90;;;4.80;;
50585;SDS011;36542;51.700;8.846;2024-01-10T00:39:03;9.50;;;4.97;;
50585;SDS011;36542;51.700;8.846;2024-01-10T00:41:29;9.67;;;4.27;;
50585;SDS011;36542;51.700;8.846;2024-01-10T00:43:54;6.43;;;4.50;;
50585;SDS011;36542;51.700;8.846;2024-01-10T00:46:20;13.27;;;4.53;;
50585;SDS011;36542;51.700;8.846;2024-01-10T00:48:45;8.93;;;3.80;;
50585;SDS011;36542;51.700;8.846;2024-01-10T00:51:11;9.80;;;5.87;;
50585;SDS011;36542;51.700;8.846;2024-01-10T00:53:37;13.20;;;6.00;;
50585;SDS011;36542;51.700;8.846;2024-01-10T00:56:05;9.53;;;4.97;;
50585;SDS011;36542;51.700;8.846;2024-01-10T00:58:31;12.90;;;3.87;;
50585;SDS011;36542;51.700;8.846;2024-01-10T01:00:57;8.77;;;4.43;;
50585;SDS011;36542;51.700;8.846;2024-01-10T01:03:22;6.57;;;4.67;;
50585;SDS011;36542;51.700;8.846;2024-01-10T01:05:48;9.57;;;4.57;;
50585;SDS011;36542;51.700;8.846;2024-01-10T01:08:13;9.03;;;4.97;;
50585;SDS011;36542;51.700;8.846;2024-01-10T01:10:39;9.93;;;4.53;;
50585;SDS011;36542;51.700;8.846;2024-01-10T01:13:04;8.97;;;4.47;;
50585;SDS011;36542;51.700;8.846;2024-01-10T01:15:30;9.53;;;5.67;;
50585;SDS011;36542;51.700;8.846;2024-01-10T01:17:55;12.50;;;5.37;;
50585;SDS011;36542;51.700;8.846;2024-01-10T01:20:21;9.33;;;4.43;;
50585;SDS011;36542;51.700;8.846;2024-01-10T01:22:46;10.60;;;5.33;;
50585;SDS011;36542;51.700;8.846;2024-01-10T01:25:12;11.27;;;5.70;;
50585;SDS011;36542;51.700;8.846;2024-01-10T01:27:37;10.10;;;5.17;;
50585;SDS011;36542;51.700;8.846;2024-01-10T01:30:03;9.27;;;5.67;;
50585;SDS011;36542;51.700;8.846;2024-01-10T01:32:29;8.70;;;4.40;;
50585;SDS011;36542;51.700;8.846;2024-01-10T01:34:54;8.70;;;4.90;;
50585;SDS011;36542;51.700;8.846;2024-01-10T01:37:20;11.50;;;6.80;;
50585;SDS011;36542;51.700;8.846;2024-01-10T01:39:45;11.77;;;5.80;;
50585;SDS011;36542;51.700;8.846;2024-01-10T01:42:11;11.63;;;5.13;;
50585;SDS011;36542;51.700;8.846;2024-01-10T01:44:36;9.50;;;4.30;;
50585;SDS011;36542;51.700;8.846;2024-01-10T01:47:02;10.67;;;5.57;;
50585;SDS011;36542;51.700;8.846;2024-01-10T01:49:28;10.53;;;5.13;;
50585;SDS011;36542;51.700;8.846;2024-01-10T01:51:54;10.37;;;4.50;;
50585;SDS011;36542;51.700;8.846;2024-01-10T01:54:20;13.27;;;6.53;;
50585;SDS011;36542;51.700;8.846;2024-01-10T01:56:46;14.57;;;7.07;;
50585;SDS011;36542;51.700;8.846;2024-01-10T01:59:12;9.87;;;4.73;;
50585;SDS011;36542;51.700;8.846;2024-01-10T02:01:38;10.83;;;5.83;;
50585;SDS011;36542;51.700;8.846;2024-01-10T02:04:04;9.73;;;4.90;;
50585;SDS011;36542;51.700;8.846;2024-01-10T02:06:29;9.80;;;5.63;;
50585;SDS011;36542;51.700;8.846;2024-01-10T02:08:55;12.33;;;5.60;;
50585;SDS011;36542;51.700;8.846;2024-01-10T02:11:24;10.83;;;5.87;;
50585;SDS011;36542;51.700;8.846;2024-01-10T02:13:50;11.90;;;6.10;;
50585;SDS011;36542;51.700;8.846;2024-01-10T02:16:19;16.87;;;6.60;;
50585;SDS011;36542;51.700;8.846;2024-01-10T02:18:45;11.70;;;6.43;;
50585;SDS011;36542;51.700;8.846;2024-01-10T02:21:11;13.77;;;5.90;;
50585;SDS011;36542;51.700;8.846;2024-01-10T02:23:36;10.67;;;5.37;;
50585;SDS011;36542;51.700;8.846;2024-01-10T02:26:02;11.60;;;6.07;;
50585;SDS011;36542;51.700;8.846;2024-01-10T02:28:27;13.83;;;6.90;;
50585;SDS011;36542;51.700;8.846;2024-01-10T02:30:53;14.40;;;6.90;;
50585;SDS011;36542;51.700;8.846;2024-01-10T02:33:19;11.27;;;6.30;;
50585;SDS011;36542;51.700;8.846;2024-01-10T02:35:45;11.57;;;6.00;;
50585;SDS011;36542;51.700;8.846;2024-01-10T02:38:10;11.67;;;5.70;;
50585;SDS011;36542;51.700;8.846;2024-01-10T02:40:36;13.83;;;5.73;;
50585;SDS011;36542;51.700;8.846;2024-01-10T02:43:01;12.90;;;6.10;;
50585;SDS011;36542;51.700;8.846;2024-01-10T02:45:27;10.43;;;6.17;;
50585;SDS011;36542;51.700;8.846;2024-01-10T02:47:53;13.80;;;7.10;;
50585;SDS011;36542;51.700;8.846;2024-01-10T02:50:18;14.50;;;6.40;;
50585;SDS011;36542;51.700;8.846;2024-01-10T02:52:44;11.03;;;5.70;;
50585;SDS011;36542;51.700;8.846;2024-01-10T02:55:09;13.80;;;5.60;;
50585;SDS011;36542;51.700;8.846;2024-01-10T02:57:35;12.40;;;6.07;;
50585;SDS011;36542;51.700;8.846;2024-01-10T03:00:00;18.30;;;7.73;;
50585;SDS011;36542;51.700;8.846;2024-01-10T03:02:26;14.93;;;7.40;;
50585;SDS011;36542;51.700;8.846;2024-01-10T03:04:51;14.60;;;6.77;;
50585;SDS011;36542;51.700;8.846;2024-01-10T03:07:17;18.53;;;7.50;;
50585;SDS011;36542;51.700;8.846;2024-01-10T03:09:42;20.67;;;8.40;;
50585;SDS011;36542;51.700;8.846;2024-01-10T03:12:08;15.97;;;7.40;;
50585;SDS011;36542;51.700;8.846;2024-01-10T03:14:35;17.83;;;9.30;;
50585;SDS011;36542;51.700;8.846;2024-01-10T03:17:01;17.53;;;7.00;;
50585;SDS011;36542;51.700;8.846;2024-01-10T03:19:27;12.07;;;6.23;;
50585;SDS011;36542;51.700;8.846;2024-01-10T03:21:53;18.40;;;6.50;;
50585;SDS011;36542;51.700;8.846;2024-01-10T03:24:19;9.30;;;4.80;;
50585;SDS011;36542;51.700;8.846;2024-01-10T03:26:44;15.57;;;7.40;;
50585;SDS011;36542;51.700;8.846;2024-01-10T03:29:10;16.90;;;8.63;;
50585;SDS011;36542;51.700;8.846;2024-01-10T03:31:35;15.37;;;7.73;;
50585;SDS011;36542;51.700;8.846;2024-01-10T03:34:01;15.37;;;7.13;;
50585;SDS011;36542;51.700;8.846;2024-01-10T03:36:26;15.00;;;8.77;;
50585;SDS011;36542;51.700;8.846;2024-01-10T03:38:52;20.20;;;8.17;;
50585;SDS011;36542;51.700;8.846;2024-01-10T03:41:18;12.50;;;6.57;;
50585;SDS011;36542;51.700;8.846;2024-01-10T03:43:44;20.83;;;9.13;;
50585;SDS011;36542;51.700;8.846;2024-01-10T03:46:11;19.10;;;8.87;;
50585;SDS011;36542;51.700;8.846;2024-01-10T03:48:37;12.30;;;5.57;;
50585;SDS011;36542;51.700;8.846;2024-01-10T03:51:05;15.93;;;6.10;;
50585;SDS011;36542;51.700;8.846;2024-01-10T03:53:31;20.80;;;8.13;;
50585;SDS011;36542;51.700;8.846;2024-01-10T03:55:56;12.67;;;6.40;;
50585;SDS011;36542;51.700;8.846;2024-01-10T03:58:23;19.50;;;8.40;;
50585;SDS011;36542;51.700;8.846;2024-01-10T04:00:49;22.20;;;8.60;;
50585;SDS011;36542;51.700;8.846;2024-01-10T04:03:14;14.53;;;6.33;;
50585;SDS011;36542;51.700;8.846;2024-01-10T04:05:40;9.70;;;5.60;;
50585;SDS011;36542;51.700;8.846;2024-01-10T04:08:06;19.97;;;10.17;;
50585;SDS011;36542;51.700;8.846;2024-01-10T04:10:32;21.40;;;9.90;;
50585;SDS011;36542;51.700;8.846;2024-01-10T04:12:57;25.30;;;9.23;;
50585;SDS011;36542;51.700;8.846;2024-01-10T04:15:23;18.53;;;9.00;;
50585;SDS011;36542;51.700;8.846;2024-01-10T04:17:48;20.57;;;8.03;;
50585;SDS011;36542;51.700;8.846;2024-01-10T04:20:14;16.27;;;8.67;;
50585;SDS011;36542;51.700;8.846;2024-01-10T04:22:39;17.17;;;7.73;;
50585;SDS011;36542;51.700;8.846;2024-01-10T04:25:05;15.53;;;7.97;;
50585;SDS011;36542;51.700;8.846;2024-01-10T04:27:32;14.47;;;7.20;;
50585;SDS011;36542;51.700;8.846;2024-01-10T04:29:57;20.40;;;9.53;;
50585;SDS011;36542;51.700;8.846;2024-01-10T04:32:23;21.30;;;9.27;;
50585;SDS011;36542;51.700;8.846;2024-01-10T04:34:49;21.73;;;9.23;;
50585;SDS011;36542;51.700;8.846;2024-01-10T04:37:15;14.07;;;7.43;;
50585;SDS011;36542;51.700;8.846;2024-01-10T04:39:40;24.17;;;9.07;;
50585;SDS011;36542;51.700;8.846;2024-01-10T04:42:07;19.13;;;9.33;;
50585;SDS011;36542;51.700;8.846;2024-01-10T04:44:33;20.70;;;9.23;;
50585;SDS011;36542;51.700;8.846;2024-01-10T04:46:59;20.10;;;8.23;;
50585;SDS011;36542;51.700;8.846;2024-01-10T04:49:24;25.17;;;9.63;;
50585;SDS011;36542;51.700;8.846;2024-01-10T04:51:50;21.10;;;8.70;;
50585;SDS011;36542;51.700;8.846;2024-01-10T04:54:16;18.90;;;8.47;;
50585;SDS011;36542;51.700;8.846;2024-01-10T04:56:42;15.27;;;6.40;;
50585;SDS011;36542;51.700;8.846;2024-01-10T04:59:07;16.77;;;8.63;;
50585;SDS011;36542;51.700;8.846;2024-01-10T05:01:33;19.90;;;8.70;;
50585;SDS011;36542;51.700;8.846;2024-01-10T05:03:58;17.93;;;8.53;;
50585;SDS011;36542;51.700;8.846;2024-01-10T05:06:24;15.43;;;7.70;;
50585;SDS011;36542;51.700;8.846;2024-01-10T05:08:50;29.13;;;11.40;;
50585;SDS011;36542;51.700;8.846;2024-01-10T05:11:16;21.47;;;9.17;;
50585;SDS011;36542;51.700;8.846;2024-01-10T05:13:42;23.23;;;9.97;;
50585;SDS011;36542;51.700;8.846;2024-01-10T05:16:08;21.23;;;9.43;;
50585;SDS011;36542;51.700;8.846;2024-01-10T05:18:33;17.67;;;9.17;;
50585;SDS011;36542;51.700;8.846;2024-01-10T05:20:59;31.67;;;9.83;;
50585;SDS011;36542;51.700;8.846;2024-01-10T05:23:25;20.00;;;8.90;;
50585;SDS011;36542;51.700;8.846;2024-01-10T05:25:51;14.77;;;6.47;;
50585;SDS011;36542;51.700;8.846;2024-01-10T05:28:16;19.43;;;8.30;;
50585;SDS011;36542;51.700;8.846;2024-01-10T05:30:42;17.70;;;9.17;;
50585;SDS011;36542;51.700;8.846;2024-01-10T05:33:09;24.53;;;9.07;;
50585;SDS011;36542;51.700;8.846;2024-01-10T05:35:35;22.43;;;10.60;;
50585;SDS011;36542;51.700;8.846;2024-01-10T05:38:01;21.90;;;9.97;;
50585;SDS011;36542;51.700;8.846;2024-01-10T05:40:30;24.63;;;6.93;;
50585;SDS011;36542;51.700;8.846;2024-01-10T05:42:56;20.10;;;9.07;;
50585;SDS011;36542;51.700;8.846;2024-01-10T05:45:22;20.40;;;8.83;;
50585;SDS011;36542;51.700;8.846;2024-01-10T05:47:48;21.40;;;10.47;;
50585;SDS011;36542;51.700;8.846;2024-01-10T05:50:13;19.73;;;7.63;;
50585;SDS011;36542;51.700;8.846;2024-01-10T05:52:39;24.77;;;10.43;;
50585;SDS011;36542;51.700;8.846;2024-01-10T05:55:05;19.83;;;9.13;;
50585;SDS011;36542;51.700;8.846;2024-01-10T05:57:33;19.27;;;10.57;;
50585;SDS011;36542;51.700;8.846;2024-01-10T06:00:02;13.43;;;8.10;;
50585;SDS011;36542;51.700;8.846;2024-01-10T06:02:28;16.60;;;7.07;;
50585;SDS011;36542;51.700;8.846;2024-01-10T06:04:54;22.83;;;10.63;;
50585;SDS011;36542;51.700;8.846;2024-01-10T06:07:19;18.70;;;8.13;;
50585;SDS011;36542;51.700;8.846;2024-01-10T06:09:46;29.33;;;12.77;;
50585;SDS011;36542;51.700;8.846;2024-01-10T06:12:11;21.40;;;10.83;;
50585;SDS011;36542;51.700;8.846;2024-01-10T06:14:38;22.23;;;10.30;;
50585;SDS011;36542;51.700;8.846;2024-01-10T06:17:04;27.10;;;10.83;;
50585;SDS011;36542;51.700;8.846;2024-01-10T06:19:29;18.73;;;9.03;;
50585;SDS011;36542;51.700;8.846;2024-01-10T06:21:56;23.17;;;9.60;;
50585;SDS011;36542;51.700;8.846;2024-01-10T06:24:22;21.23;;;9.40;;
50585;SDS011;36542;51.700;8.846;2024-01-10T06:26:47;22.97;;;9.33;;
50585;SDS011;36542;51.700;8.846;2024-01-10T06:29:14;24.47;;;9.40;;
50585;SDS011;36542;51.700;8.846;2024-01-10T06:31:40;24.67;;;10.13;;
50585;SDS011;36542;51.700;8.846;2024-01-10T06:34:05;23.03;;;9.70;;
50585;SDS011;36542;51.700;8.846;2024-01-10T06:36:34;16.63;;;9.20;;
50585;SDS011;36542;51.700;8.846;2024-01-10T06:39:00;21.40;;;9.57;;
50585;SDS011;36542;51.700;8.846;2024-01-10T06:41:26;23.60;;;10.27;;
50585;SDS011;36542;51.700;8.846;2024-01-10T06:43:52;33.53;;;11.50;;
50585;SDS011;36542;51.700;8.846;2024-01-10T06:46:18;31.73;;;10.90;;
50585;SDS011;36542;51.700;8.846;2024-01-10T06:48:44;22.60;;;10.80;;
50585;SDS011;36542;51.700;8.846;2024-01-10T06:51:10;29.97;;;12.17;;
50585;SDS011;36542;51.700;8.846;2024-01-10T06:53:38;28.90;;;12.23;;
50585;SDS011;36542;51.700;8.846;2024-01-10T06:56:04;27.53;;;12.03;;
50585;SDS011;36542;51.700;8.846;2024-01-10T06:58:30;28.73;;;11.80;;
50585;SDS011;36542;51.700;8.846;2024-01-10T07:00:56;18.40;;;7.77;;
50585;SDS011;36542;51.700;8.846;2024-01-10T07:03:21;26.90;;;13.07;;
50585;SDS011;36542;51.700;8.846;2024-01-10T07:05:47;24.73;;;9.07;;
50585;SDS011;36542;51.700;8.846;2024-01-10T07:08:12;25.27;;;12.70;;
50585;SDS011;36542;51.700;8.846;2024-01-10T07:10:39;30.70;;;12.50;;
50585;SDS011;36542;51.700;8.846;2024-01-10T07:13:04;31.30;;;14.27;;
50585;SDS011;36542;51.700;8.846;2024-01-10T07:15:30;14.20;;;7.27;;
50585;SDS011;36542;51.700;8.846;2024-01-10T07:17:55;34.97;;;12.97;;
50585;SDS011;36542;51.700;8.846;2024-01-10T07:20:21;27.07;;;9.30;;
50585;SDS011;36542;51.700;8.846;2024-01-10T07:22:49;31.87;;;13.73;;
50585;SDS011;36542;51.700;8.846;2024-01-10T07:25:14;29.30;;;13.73;;
50585;SDS011;36542;51.700;8.846;2024-01-10T07:27:40;27.70;;;11.27;;
50585;SDS011;36542;51.700;8.846;2024-01-10T07:30:06;38.90;;;15.30;;
50585;SDS011;36542;51.700;8.846;2024-01-10T07:32:41;29.30;;;12.30;;
50585;SDS011;36542;51.700;8.846;2024-01-10T07:35:08;24.50;;;11.50;;
50585;SDS011;36542;51.700;8.846;2024-01-10T07:37:35;32.93;;;13.43;;
50585;SDS011;36542;51.700;8.846;2024-01-10T07:40:04;29.70;;;13.97;;
50585;SDS011;36542;51.700;8.846;2024-01-10T07:42:38;28.63;;;12.57;;
50585;SDS011;36542;51.700;8.846;2024-01-10T07:45:07;22.57;;;11.20;;
50585;SDS011;36542;51.700;8.846;2024-01-10T07:47:34;39.80;;;14.20;;
50585;SDS011;36542;51.700;8.846;2024-01-10T07:50:11;30.03;;;14.97;;
50585;SDS011;36542;51.700;8.846;2024-01-10T07:52:39;35.97;;;15.50;;
50585;SDS011;36542;51.700;8.846;2024-01-10T07:55:06;34.70;;;14.70;;
50585;SDS011;36542;51.700;8.846;2024-01-10T07:57:33;26.70;;;12.73;;
50585;SDS011;36542;51.700;8.846;2024-01-10T07:59:59;26.70;;;12.53;;
50585;SDS011;36542;51.700;8.846;2024-01-10T08:02:25;32.60;;;14.67;;
50585;SDS011;36542;51.700;8.846;2024-01-10T08:04:51;28.10;;;13.47;;
50585;SDS011;36542;51.700;8.846;2024-01-10T08:07:17;35.03;;;16.53;;
50585;SDS011;36542;51.700;8.846;2024-01-10T08:09:43;35.17;;;16.37;;
50585;SDS011;36542;51.700;8.846;2024-01-10T08:12:09;36.40;;;15.37;;
50585;SDS011;36542;51.700;8.846;2024-01-10T08:14:36;28.90;;;13.23;;
50585;SDS011;36542;51.700;8.846;2024-01-10T08:17:02;37.63;;;13.67;;
50585;SDS011;36542;51.700;8.846;2024-01-10T08:19:28;31.00;;;14.30;;
50585;SDS011;36542;51.700;8.846;2024-01-10T08:21:54;32.43;;;13.97;;
50585;SDS011;36542;51.700;8.846;2024-01-10T08:24:20;34.13;;;14.87;;
50585;SDS011;36542;51.700;8.846;2024-01-10T08:26:48;31.60;;;12.87;;
50585;SDS011;36542;51.700;8.846;2024-01-10T08:29:20;26.70;;;11.77;;
50585;SDS011;36542;51.700;8.846;2024-01-10T08:31:46;32.13;;;13.70;;
50585;SDS011;36542;51.700;8.846;2024-01-10T08:34:12;31.87;;;14.83;;
50585;SDS011;36542;51.700;8.846;2024-01-10T08:36:38;31.37;;;15.10;;
50585;SDS011;36542;51.700;8.846;2024-01-10T08:39:03;43.70;;;15.57;;
50585;SDS011;36542;51.700;8.846;2024-01-10T08:41:29;28.93;;;13.30;;
50585;SDS011;36542;51.700;8.846;2024-01-10T08:43:55;34.30;;;13.07;;
50585;SDS011;36542;51.700;8.846;2024-01-10T08:46:21;32.13;;;14.80;;
50585;SDS011;36542;51.700;8.846;2024-01-10T08:48:46;31.90;;;14.10;;
50585;SDS011;36542;51.700;8.846;2024-01-10T08:51:12;27.17;;;13.90;;
50585;SDS011;36542;51.700;8.846;2024-01-10T08:53:41;26.93;;;14.13;;
50585;SDS011;36542;51.700;8.846;2024-01-10T08:56:06;28.63;;;13.37;;
50585;SDS011;36542;51.700;8.846;2024-01-10T08:58:32;31.20;;;14.63;;
50585;SDS011;36542;51.700;8.846;2024-01-10T09:00:58;28.73;;;14.30;;
50585;SDS011;36542;51.700;8.846;2024-01-10T09:03:23;36.80;;;15.60;;
50585;SDS011;36542;51.700;8.846;2024-01-10T09:05:48;23.53;;;12.73;;
50585;SDS011;36542;51.700;8.846;2024-01-10T09:08:14;25.73;;;12.97;;
50585;SDS011;36542;51.700;8.846;2024-01-10T09:10:40;26.97;;;12.53;;
50585;SDS011;36542;51.700;8.846;2024-01-10T09:13:06;27.63;;;13.07;;
50585;SDS011;36542;51.700;8.846;2024-01-10T09:15:32;21.70;;;10.23;;
50585;SDS011;36542;51.700;8.846;2024-01-10T09:17:57;22.03;;;11.90;;
50585;SDS011;36542;51.700;8.846;2024-01-10T09:20:23;20.87;;;11.23;;
50585;SDS011;36542;51.700;8.846;2024-01-10T09:22:48;29.17;;;12.40;;
50585;SDS011;36542;51.700;8.846;2024-01-10T09:25:14;21.60;;;10.70;;
50585;SDS011;36542;51.700;8.846;2024-01-10T09:27:39;23.43;;;12.43;;
50585;SDS011;36542;51.700;8.846;2024-01-10T09:30:09;21.77;;;11.17;;
50585;SDS011;36542;51.700;8.846;2024-01-10T09:32:36;25.07;;;12.30;;
50585;SDS011;36542;51.700;8.846;2024-01-10T09:35:02;26.17;;;12.73;;
50585;SDS011;36542;51.700;8.846;2024-01-10T09:37:28;21.53;;;11.63;;
50585;SDS011;36542;51.700;8.846;2024-01-10T09:39:53;26.70;;;13.30;;
50585;SDS011;36542;51.700;8.846;2024-01-10T09:42:19;26.33;;;12.90;;
50585;SDS011;36542;51.700;8.846;2024-01-10T09:44:50;20.47;;;11.03;;
50585;SDS011;36542;51.700;8.846;2024-01-10T09:47:16;23.07;;;11.40;;
50585;SDS011;36542;51.700;8.846;2024-01-10T09:49:44;20.97;;;11.43;;
50585;SDS011;36542;51.700;8.846;2024-01-10T09:52:11;21.80;;;11.50;;
50585;SDS011;36542;51.700;8.846;2024-01-10T09:54:45;18.80;;;10.43;;
50585;SDS011;36542;51.700;8.846;2024-01-10T09:57:12;22.43;;;10.47;;
50585;SDS011;36542;51.700;8.846;2024-01-10T09:59:38;20.27;;;9.73;;
50585;SDS011;36542;51.700;8.846;2024-01-10T10:02:06;20.13;;;10.23;;
50585;SDS011;36542;51.700;8.846;2024-01-10T10:04:31;24.07;;;11.43;;
50585;SDS011;36542;51.700;8.846;2024-01-10T10:07:00;20.93;;;10.77;;
50585;SDS011;36542;51.700;8.846;2024-01-10T10:09:26;22.50;;;10.70;;
50585;SDS011;36542;51.700;8.846;2024-01-10T10:11:56;23.30;;;10.93;;
50585;SDS011;36542;51.700;8.846;2024-01-10T10:14:26;24.53;;;11.43;;
50585;SDS011;36542;51.700;8.846;2024-01-10T10:16:53;23.47;;;10.73;;
50585;SDS011;36542;51.700;8.846;2024-01-10T10:19:23;19.57;;;10.10;;
50585;SDS011;36542;51.700;8.846;2024-01-10T10:21:49;22.27;;;11.83;;
50585;SDS011;36542;51.700;8.846;2024-01-10T10:24:15;23.53;;;10.97;;
50585;SDS011;36542;51.700;8.846;2024-01-10T10:26:42;19.10;;;10.60;;
50585;SDS011;36542;51.700;8.846;2024-01-10T10:29:07;20.50;;;11.50;;
50585;SDS011;36542;51.700;8.846;2024-01-10T10:31:33;21.33;;;11.10;;
50585;SDS011;36542;51.700;8.846;2024-01-10T10:34:00;16.57;;;9.10;;
50585;SDS011;36542;51.700;8.846;2024-01-10T10:36:30;19.70;;;9.43;;
50585;SDS011;36542;51.700;8.846;2024-01-10T10:38:56;20.50;;;11.27;;
50585;SDS011;36542;51.700;8.846;2024-01-10T10:41:28;21.10;;;11.90;;
50585;SDS011;36542;51.700;8.846;2024-01-10T10:43:56;24.13;;;11.43;;
50585;SDS011;36542;51.700;8.846;2024-01-10T10:46:21;23.67;;;11.73;;
50585;SDS011;36542;51.700;8.846;2024-01-10T10:48:52;20.13;;;11.17;;
50585;SDS011;36542;51.700;8.846;2024-01-10T10:51:36;22.57;;;11.43;;
50585;SDS011;36542;51.700;8.846;2024-01-10T10:54:03;28.93;;;12.93;;
50585;SDS011;36542;51.700;8.846;2024-01-10T10:56:30;20.47;;;10.83;;
50585;SDS011;36542;51.700;8.846;2024-01-10T10:58:57;16.33;;;9.40;;
50585;SDS011;36542;51.700;8.846;2024-01-10T11:01:25;18.67;;;10.03;;
50585;SDS011;36542;51.700;8.846;2024-01-10T11:03:52;17.83;;;9.10;;
50585;SDS011;36542;51.700;8.846;2024-01-10T11:06:18;20.67;;;9.13;;
50585;SDS011;36542;51.700;8.846;2024-01-10T11:08:47;18.90;;;10.13;;
50585;SDS011;36542;51.700;8.846;2024-01-10T11:11:33;20.23;;;10.47;;
50585;SDS011;36542;51.700;8.846;2024-01-10T11:25:25;25.90;;;12.47;;
50585;SDS011;36542;51.700;8.846;2024-01-10T11:27:54;21.80;;;11.33;;
50585;SDS011;36542;51.700;8.846;2024-01-10T11:30:48;20.60;;;11.97;;
50585;SDS011;36542;51.700;8.846;2024-01-10T11:36:05;22.90;;;10.97;;
50585;SDS011;36542;51.700;8.846;2024-01-10T11:38:48;19.10;;;9.00;;
50585;SDS011;36542;51.700;8.846;2024-01-10T11:41:21;23.30;;;11.30;;
50585;SDS011;36542;51.700;8.846;2024-01-10T11:49:15;20.67;;;10.90;;
50585;SDS011;36542;51.700;8.846;2024-01-10T11:51:42;19.07;;;10.13;;
50585;SDS011;36542;51.700;8.846;2024-01-10T11:54:08;18.23;;;9.17;;
50585;SDS011;36542;51.700;8.846;2024-01-10T11:56:38;18.30;;;10.10;;
50585;SDS011;36542;51.700;8.846;2024-01-10T11:59:09;21.60;;;9.97;;
50585;SDS011;36542;51.700;8.846;2024-01-10T12:01:38;18.83;;;7.90;;
50585;SDS011;36542;51.700;8.846;2024-01-10T12:04:05;25.30;;;10.50;;
50585;SDS011;36542;51.700;8.846;2024-01-10T12:06:31;20.93;;;11.17;;
50585;SDS011;36542;51.700;8.846;2024-01-10T12:08:59;17.67;;;9.03;;
50585;SDS011;36542;51.700;8.846;2024-01-10T12:11:24;27.83;;;11.33;;
50585;SDS011;36542;51.700;8.846;2024-01-10T12:13:50;24.23;;;10.97;;
50585;SDS011;36542;51.700;8.846;2024-01-10T12:16:16;20.93;;;10.03;;
50585;SDS011;36542;51.700;8.846;2024-01-10T12:18:42;23.37;;;11.43;;
50585;SDS011;36542;51.700;8.846;2024-01-10T12:21:08;19.57;;;10.27;;
50585;SDS011;36542;51.700;8.846;2024-01-10T12:23:35;19.53;;;11.00;;
50585;SDS011;36542;51.700;8.846;2024-01-10T12:26:01;24.10;;;12.23;;
50585;SDS011;36542;51.700;8.846;2024-01-10T12:28:29;26.20;;;13.03;;
50585;SDS011;36542;51.700;8.846;2024-01-10T12:30:55;24.67;;;11.57;;
50585;SDS011;36542;51.700;8.846;2024-01-10T12:33:23;24.60;;;11.07;;
50585;SDS011;36542;51.700;8.846;2024-01-10T12:36:03;24.50;;;11.63;;
50585;SDS011;36542;51.700;8.846;2024-01-10T12:38:34;27.47;;;13.10;;
50585;SDS011;36542;51.700;8.846;2024-01-10T12:41:00;25.70;;;13.17;;
50585;SDS011;36542;51.700;8.846;2024-01-10T12:43:26;23.87;;;12.27;;
50585;SDS011;36542;51.700;8.846;2024-01-10T12:46:05;21.57;;;11.20;;
50585;SDS011;36542;51.700;8.846;2024-01-10T12:48:37;23.07;;;11.13;;
50585;SDS011;36542;51.700;8.846;2024-01-10T12:51:06;24.80;;;11.63;;
50585;SDS011;36542;51.700;8.846;2024-01-10T12:53:41;21.07;;;11.80;;
50585;SDS011;36542;51.700;8.846;2024-01-10T12:56:09;21.10;;;10.70;;
50585;SDS011;36542;51.700;8.846;2024-01-10T12:58:39;24.40;;;11.17;;
50585;SDS011;36542;51.700;8.846;2024-01-10T13:01:06;26.87;;;13.93;;
50585;SDS011;36542;51.700;8.846;2024-01-10T13:03:33;29.67;;;13.33;;
50585;SDS011;36542;51.700;8.846;2024-01-10T13:05:59;24.77;;;11.70;;
50585;SDS011;36542;51.700;8.846;2024-01-10T13:08:24;25.60;;;12.57;;
50585;SDS011;36542;51.700;8.846;2024-01-10T13:10:50;21.03;;;12.20;;
50585;SDS011;36542;51.700;8.846;2024-01-10T13:13:15;26.20;;;12.13;;
50585;SDS011;36542;51.700;8.846;2024-01-10T13:15:46;23.70;;;11.90;;
50585;SDS011;36542;51.700;8.846;2024-01-10T13:18:12;23.73;;;12.23;;
50585;SDS011;36542;51.700;8.846;2024-01-10T13:20:39;20.97;;;11.47;;
50585;SDS011;36542;51.700;8.846;2024-01-10T13:23:05;21.80;;;11.80;;
50585;SDS011;36542;51.700;8.846;2024-01-10T13:25:30;21.50;;;10.70;;
50585;SDS011;36542;51.700;8.846;2024-01-10T13:27:56;21.37;;;11.30;;
50585;SDS011;36542;51.700;8.846;2024-01-10T13:30:22;21.97;;;11.33;;
50585;SDS011;36542;51.700;8.846;2024-01-10T13:32:48;22.37;;;11.30;;
50585;SDS011;36542;51.700;8.846;2024-01-10T13:35:14;22.23;;;11.30;;
50585;SDS011;36542;51.700;8.846;2024-01-10T13:37:41;24.00;;;11.27;;
50585;SDS011;36542;51.700;8.846;2024-01-10T13:40:11;18.70;;;9.90;;
50585;SDS011;36542;51.700;8.846;2024-01-10T13:42:40;20.47;;;10.70;;
50585;SDS011;36542;51.700;8.846;2024-01-10T13:45:06;21.23;;;10.67;;
50585;SDS011;36542;51.700;8.846;2024-01-10T13:47:38;19.43;;;10.00;;
50585;SDS011;36542;51.700;8.846;2024-01-10T13:50:05;18.33;;;9.20;;
50585;SDS011;36542;51.700;8.846;2024-01-10T13:52:31;20.53;;;9.93;;
50585;SDS011;36542;51.700;8.846;2024-01-10T13:55:01;21.13;;;10.73;;
50585;SDS011;36542;51.700;8.846;2024-01-10T13:57:29;20.57;;;8.90;;
50585;SDS011;36542;51.700;8.846;2024-01-10T13:59:55;24.13;;;11.47;;
50585;SDS011;36542;51.700;8.846;2024-01-10T14:02:21;20.63;;;9.93;;
50585;SDS011;36542;51.700;8.846;2024-01-10T14:04:47;18.73;;;10.13;;
50585;SDS011;36542;51.700;8.846;2024-01-10T14:07:13;21.37;;;11.23;;
50585;SDS011;36542;51.700;8.846;2024-01-10T14:09:38;17.47;;;10.13;;
50585;SDS011;36542;51.700;8.846;2024-01-10T14:12:04;21.30;;;9.37;;
50585;SDS011;36542;51.700;8.846;2024-01-10T14:14:29;18.53;;;9.27;;
50585;SDS011;36542;51.700;8.846;2024-01-10T14:16:57;20.77;;;9.73;;
50585;SDS011;36542;51.700;8.846;2024-01-10T14:19:22;18.90;;;8.83;;
50585;SDS011;36542;51.700;8.846;2024-01-10T14:21:48;16.53;;;9.67;;
50585;SDS011;36542;51.700;8.846;2024-01-10T14:24:13;19.07;;;9.50;;
50585;SDS011;36542;51.700;8.846;2024-01-10T14:26:39;16.63;;;9.47;;
50585;SDS011;36542;51.700;8.846;2024-01-10T14:29:04;19.47;;;10.00;;
50585;SDS011;36542;51.700;8.846;2024-01-10T14:31:31;20.13;;;10.53;;
50585;SDS011;36542;51.700;8.846;2024-01-10T14:33:57;16.97;;;9.50;;
50585;SDS011;36542;51.700;8.846;2024-01-10T14:36:22;21.20;;;10.57;;
50585;SDS011;36542;51.700;8.846;2024-01-10T14:38:48;18.23;;;9.47;;
50585;SDS011;36542;51.700;8.846;2024-01-10T14:41:14;18.73;;;10.30;;
50585;SDS011;36542;51.700;8.846;2024-01-10T14:43:39;21.30;;;10.13;;